sensor_id;sensor_type;location;lat;lon;timestamp;pressure;altitude;pressure_sealevel;temperature;humidity
42633;BME280;28261;53.304;-6.284;2022-12-18T00:00:33;100952.69;;;1.62;100.00
42633;BME280;28261;53.304;-6.284;2022-12-18T00:02:37;100951.63;;;1.71;100.00
42633;BME280;28261;53.304;-6.284;2022-12-18T00:04:43;100945.34;;;1.77;100.00
42633;BME280;28261;53.304;-6.284;2022-12-18T00:06:47;100951.28;;;1.83;100.00
42633;BME280;28261;53.304;-6.284;2022-12-18T00:08:51;100945.91;;;1.88;100.00
42633;BME280;28261;53.304;-6.284;2022-12-18T00:11:03;100951.06;;;1.91;100.00
42633;BME280;28261;53.304;-6.284;2022-12-18T00:13:08;100944.94;;;1.92;100.00
42633;BME280;28261;53.304;-6.284;2022-12-18T00:15:12;100956.22;;;1.93;100.00
42633;BME280;28261;53.304;-6.284;2022-12-18T00:17:16;100956.94;;;1.99;100.00
42633;BME280;28261;53.304;-6.284;2022-12-18T00:19:20;100962.88;;;2.05;100.00
42633;BME280;28261;53.304;-6.284;2022-12-18T00:21:26;100954.94;;;2.08;100.00
42633;BME280;28261;53.304;-6.284;2022-12-18T00:23:31;100956.53;;;2.15;100.00
42633;BME280;28261;53.304;-6.284;2022-12-18T00:25:36;100951.19;;;2.18;100.00
42633;BME280;28261;53.304;-6.284;2022-12-18T00:27:40;100951.09;;;2.21;100.00
42633;BME280;28261;53.304;-6.284;2022-12-18T00:29:44;100951.88;;;2.25;100.00
42633;BME280;28261;53.304;-6.284;2022-12-18T00:31:48;100950.00;;;2.28;100.00
42633;BME280;28261;53.304;-6.284;2022-12-18T00:33:53;100954.28;;;2.32;100.00
42633;BME280;28261;53.304;-6.284;2022-12-18T00:36:00;100949.91;;;2.33;100.00
42633;BME280;28261;53.304;-6.284;2022-12-18T00:38:08;100956.84;;;2.34;100.00
42633;BME280;28261;53.304;-6.284;2022-12-18T00:40:12;100956.06;;;2.30;100.00
42633;BME280;28261;53.304;-6.284;2022-12-18T00:42:16;100953.50;;;2.29;100.00
42633;BME280;28261;53.304;-6.284;2022-12-18T00:44:37;100948.13;;;2.33;100.00
42633;BME280;28261;53.304;-6.284;2022-12-18T00:46:42;100934.94;;;2.38;100.00
42633;BME280;28261;53.304;-6.284;2022-12-18T00:48:46;100942.63;;;2.43;100.00
42633;BME280;28261;53.304;-6.284;2022-12-18T00:50:50;100931.22;;;2.45;100.00
42633;BME280;28261;53.304;-6.284;2022-12-18T00:52:54;100936.31;;;2.50;100.00
42633;BME280;28261;53.304;-6.284;2022-12-18T00:55:00;100929.16;;;2.55;100.00
42633;BME280;28261;53.304;-6.284;2022-12-18T00:57:07;100925.47;;;2.62;100.00
42633;BME280;28261;53.304;-6.284;2022-12-18T00:59:11;100921.84;;;2.66;100.00
42633;BME280;28261;53.304;-6.284;2022-12-18T01:01:15;100916.47;;;2.71;100.00
42633;BME280;28261;53.304;-6.284;2022-12-18T01:03:19;100922.44;;;2.76;100.00
42633;BME280;28261;53.304;-6.284;2022-12-18T01:05:24;100920.59;;;2.78;100.00
42633;BME280;28261;53.304;-6.284;2022-12-18T01:07:28;100914.31;;;2.84;100.00
42633;BME280;28261;53.304;-6.284;2022-12-18T01:09:32;100910.59;;;2.91;100.00
42633;BME280;28261;53.304;-6.284;2022-12-18T01:11:38;100907.72;;;2.99;100.00
42633;BME280;28261;53.304;-6.284;2022-12-18T01:13:44;100901.38;;;3.06;100.00
42633;BME280;28261;53.304;-6.284;2022-12-18T01:15:48;100904.56;;;3.16;100.00
42633;BME280;28261;53.304;-6.284;2022-12-18T01:17:53;100908.69;;;3.23;100.00
42633;BME280;28261;53.304;-6.284;2022-12-18T01:19:57;100905.91;;;3.28;100.00
42633;BME280;28261;53.304;-6.284;2022-12-18T01:22:01;100899.66;;;3.32;100.00
42633;BME280;28261;53.304;-6.284;2022-12-18T01:24:06;100888.22;;;3.34;100.00
42633;BME280;28261;53.304;-6.284;2022-12-18T01:26:12;100890.72;;;3.37;100.00
42633;BME280;28261;53.304;-6.284;2022-12-18T01:28:18;100890.72;;;3.37;100.00
42633;BME280;28261;53.304;-6.284;2022-12-18T01:30:21;100895.00;;;3.40;100.00
42633;BME280;28261;53.304;-6.284;2022-12-18T01:32:29;100880.94;;;3.43;100.00
42633;BME280;28261;53.304;-6.284;2022-12-18T01:34:35;100884.91;;;3.54;100.00
42633;BME280;28261;53.304;-6.284;2022-12-18T01:36:39;100876.88;;;3.59;100.00
42633;BME280;28261;53.304;-6.284;2022-12-18T01:38:43;100875.06;;;3.61;100.00
42633;BME280;28261;53.304;-6.284;2022-12-18T01:40:48;100866.38;;;3.59;100.00
42633;BME280;28261;53.304;-6.284;2022-12-18T01:42:52;100863.88;;;3.56;100.00
42633;BME280;28261;53.304;-6.284;2022-12-18T01:45:02;100862.09;;;3.56;100.00
42633;BME280;28261;53.304;-6.284;2022-12-18T01:47:06;100840.28;;;3.56;100.00
42633;BME280;28261;53.304;-6.284;2022-12-18T01:49:11;100845.53;;;3.56;100.00
42633;BME280;28261;53.304;-6.284;2022-12-18T01:51:16;100833.38;;;3.53;100.00
42633;BME280;28261;53.304;-6.284;2022-12-18T01:53:23;100830.13;;;3.47;100.00
42633;BME280;28261;53.304;-6.284;2022-12-18T01:55:30;100836.28;;;3.46;100.00
42633;BME280;28261;53.304;-6.284;2022-12-18T01:57:35;100839.81;;;3.45;100.00
42633;BME280;28261;53.304;-6.284;2022-12-18T01:59:42;100816.13;;;3.48;100.00
42633;BME280;28261;53.304;-6.284;2022-12-18T02:01:50;100805.53;;;3.51;100.00
42633;BME280;28261;53.304;-6.284;2022-12-18T02:03:55;100807.34;;;3.49;100.00
42633;BME280;28261;53.304;-6.284;2022-12-18T02:06:04;100796.88;;;3.49;100.00
42633;BME280;28261;53.304;-6.284;2022-12-18T02:08:19;100791.72;;;3.46;100.00
42633;BME280;28261;53.304;-6.284;2022-12-18T02:10:27;100796.00;;;3.48;100.00
42633;BME280;28261;53.304;-6.284;2022-12-18T02:12:42;100801.16;;;3.51;100.00
42633;BME280;28261;53.304;-6.284;2022-12-18T02:14:48;100800.97;;;3.56;100.00
42633;BME280;28261;53.304;-6.284;2022-12-18T02:17:01;100804.50;;;3.55;100.00
42633;BME280;28261;53.304;-6.284;2022-12-18T02:19:23;100812.38;;;3.55;100.00
42633;BME280;28261;53.304;-6.284;2022-12-18T02:21:40;100799.94;;;3.60;100.00
42633;BME280;28261;53.304;-6.284;2022-12-18T02:23:56;100813.69;;;3.67;100.00
42633;BME280;28261;53.304;-6.284;2022-12-18T02:26:15;100807.19;;;3.77;100.00
42633;BME280;28261;53.304;-6.284;2022-12-18T02:28:30;100802.16;;;3.95;100.00
42633;BME280;28261;53.304;-6.284;2022-12-18T02:30:39;100795.72;;;4.03;100.00
42633;BME280;28261;53.304;-6.284;2022-12-18T02:32:47;100788.50;;;4.09;100.00
42633;BME280;28261;53.304;-6.284;2022-12-18T02:34:55;100780.63;;;4.09;100.00
42633;BME280;28261;53.304;-6.284;2022-12-18T02:37:04;100775.44;;;4.07;100.00
42633;BME280;28261;53.304;-6.284;2022-12-18T02:39:12;100773.91;;;4.01;100.00
42633;BME280;28261;53.304;-6.284;2022-12-18T02:41:31;100768.53;;;4.04;100.00
42633;BME280;28261;53.304;-6.284;2022-12-18T02:43:37;100767.63;;;4.05;100.00
42633;BME280;28261;53.304;-6.284;2022-12-18T02:45:47;100766.59;;;4.10;100.00
42633;BME280;28261;53.304;-6.284;2022-12-18T02:47:53;100777.84;;;4.13;100.00
42633;BME280;28261;53.304;-6.284;2022-12-18T02:50:02;100771.00;;;4.09;100.00
42633;BME280;28261;53.304;-6.284;2022-12-18T02:52:18;100768.19;;;4.14;100.00
42633;BME280;28261;53.304;-6.284;2022-12-18T02:54:37;100758.19;;;4.23;100.00
42633;BME280;28261;53.304;-6.284;2022-12-18T02:56:49;100750.97;;;4.29;100.00
42633;BME280;28261;53.304;-6.284;2022-12-18T02:58:59;100749.16;;;4.31;100.00
42633;BME280;28261;53.304;-6.284;2022-12-18T03:01:12;100744.81;;;4.30;100.00
42633;BME280;28261;53.304;-6.284;2022-12-18T03:03:23;100737.09;;;4.27;100.00
42633;BME280;28261;53.304;-6.284;2022-12-18T03:05:33;100738.00;;;4.26;100.00
42633;BME280;28261;53.304;-6.284;2022-12-18T03:07:42;100736.34;;;4.23;100.00
42633;BME280;28261;53.304;-6.284;2022-12-18T03:09:50;100738.13;;;4.22;100.00
42633;BME280;28261;53.304;-6.284;2022-12-18T03:12:04;100723.09;;;4.26;100.00
42633;BME280;28261;53.304;-6.284;2022-12-18T03:14:32;100721.13;;;4.31;100.00
42633;BME280;28261;53.304;-6.284;2022-12-18T03:16:38;100722.84;;;4.32;100.00
42633;BME280;28261;53.304;-6.284;2022-12-18T03:18:49;100711.47;;;4.32;100.00
42633;BME280;28261;53.304;-6.284;2022-12-18T03:20:58;100701.84;;;4.32;100.00
42633;BME280;28261;53.304;-6.284;2022-12-18T03:23:09;100687.03;;;4.31;100.00
42633;BME280;28261;53.304;-6.284;2022-12-18T03:25:14;100687.81;;;4.33;100.00
42633;BME280;28261;53.304;-6.284;2022-12-18T03:27:22;100677.25;;;4.35;100.00
42633;BME280;28261;53.304;-6.284;2022-12-18T03:29:33;100665.88;;;4.34;100.00
42633;BME280;28261;53.304;-6.284;2022-12-18T03:31:40;100665.81;;;4.36;100.00
42633;BME280;28261;53.304;-6.284;2022-12-18T03:33:51;100662.28;;;4.37;100.00
42633;BME280;28261;53.304;-6.284;2022-12-18T03:35:59;100652.59;;;4.39;100.00
42633;BME280;28261;53.304;-6.284;2022-12-18T03:38:03;100660.41;;;4.40;100.00
42633;BME280;28261;53.304;-6.284;2022-12-18T03:40:09;100664.78;;;4.40;100.00
42633;BME280;28261;53.304;-6.284;2022-12-18T03:42:16;100665.72;;;4.39;100.00
42633;BME280;28261;53.304;-6.284;2022-12-18T03:44:31;100656.97;;;4.38;100.00
42633;BME280;28261;53.304;-6.284;2022-12-18T03:46:44;100669.31;;;4.36;100.00
42633;BME280;28261;53.304;-6.284;2022-12-18T03:48:55;100659.00;;;4.32;100.00
42633;BME280;28261;53.304;-6.284;2022-12-18T03:51:05;100659.06;;;4.30;100.00
42633;BME280;28261;53.304;-6.284;2022-12-18T03:53:20;100663.53;;;4.28;100.00
42633;BME280;28261;53.304;-6.284;2022-12-18T03:55:30;100660.19;;;4.24;100.00
42633;BME280;28261;53.304;-6.284;2022-12-18T03:57:39;100665.50;;;4.23;100.00
42633;BME280;28261;53.304;-6.284;2022-12-18T03:59:48;100645.34;;;4.23;100.00
42633;BME280;28261;53.304;-6.284;2022-12-18T04:01:55;100644.25;;;4.29;100.00
42633;BME280;28261;53.304;-6.284;2022-12-18T04:04:02;100631.91;;;4.31;100.00
42633;BME280;28261;53.304;-6.284;2022-12-18T04:06:10;100637.09;;;4.33;100.00
42633;BME280;28261;53.304;-6.284;2022-12-18T04:08:15;100619.63;;;4.32;100.00
42633;BME280;28261;53.304;-6.284;2022-12-18T04:10:26;100618.94;;;4.28;100.00
42633;BME280;28261;53.304;-6.284;2022-12-18T04:12:30;100630.19;;;4.30;100.00
42633;BME280;28261;53.304;-6.284;2022-12-18T04:14:34;100620.66;;;4.29;100.00
42633;BME280;28261;53.304;-6.284;2022-12-18T04:16:43;100627.63;;;4.29;100.00
42633;BME280;28261;53.304;-6.284;2022-12-18T04:18:49;100621.47;;;4.30;100.00
42633;BME280;28261;53.304;-6.284;2022-12-18T04:20:54;100615.41;;;4.29;100.00
42633;BME280;28261;53.304;-6.284;2022-12-18T04:22:57;100616.25;;;4.30;100.00
42633;BME280;28261;53.304;-6.284;2022-12-18T04:25:01;100598.78;;;4.29;100.00
42633;BME280;28261;53.304;-6.284;2022-12-18T04:27:11;100609.19;;;4.30;100.00
42633;BME280;28261;53.304;-6.284;2022-12-18T04:29:18;100597.88;;;4.30;100.00
42633;BME280;28261;53.304;-6.284;2022-12-18T04:31:22;100586.47;;;4.31;100.00
42633;BME280;28261;53.304;-6.284;2022-12-18T04:33:28;100569.59;;;4.36;100.00
42633;BME280;28261;53.304;-6.284;2022-12-18T04:35:32;100576.56;;;4.37;100.00
42633;BME280;28261;53.304;-6.284;2022-12-18T04:37:35;100559.09;;;4.36;100.00
42633;BME280;28261;53.304;-6.284;2022-12-18T04:39:40;100566.16;;;4.34;100.00
42633;BME280;28261;53.304;-6.284;2022-12-18T04:41:50;100565.41;;;4.32;100.00
42633;BME280;28261;53.304;-6.284;2022-12-18T04:43:54;100545.06;;;4.37;100.00
42633;BME280;28261;53.304;-6.284;2022-12-18T04:46:02;100545.69;;;4.43;100.00
42633;BME280;28261;53.304;-6.284;2022-12-18T04:48:06;100533.22;;;4.48;100.00
42633;BME280;28261;53.304;-6.284;2022-12-18T04:50:11;100543.63;;;4.49;100.00
42633;BME280;28261;53.304;-6.284;2022-12-18T04:52:15;100541.81;;;4.51;100.00
42633;BME280;28261;53.304;-6.284;2022-12-18T04:54:18;100530.31;;;4.54;100.00
42633;BME280;28261;53.304;-6.284;2022-12-18T04:56:23;100511.06;;;4.53;100.00
42633;BME280;28261;53.304;-6.284;2022-12-18T04:58:26;100518.13;;;4.53;100.00
42633;BME280;28261;53.304;-6.284;2022-12-18T05:00:29;100520.88;;;4.50;100.00
42633;BME280;28261;53.304;-6.284;2022-12-18T05:02:33;100500.78;;;4.49;100.00
42633;BME280;28261;53.304;-6.284;2022-12-18T05:04:37;100504.34;;;4.48;100.00
42633;BME280;28261;53.304;-6.284;2022-12-18T05:06:42;100486.03;;;4.46;100.00
42633;BME280;28261;53.304;-6.284;2022-12-18T05:08:45;100481.78;;;4.44;100.00
42633;BME280;28261;53.304;-6.284;2022-12-18T05:10:48;100476.53;;;4.44;100.00
42633;BME280;28261;53.304;-6.284;2022-12-18T05:12:52;100481.84;;;4.42;100.00
42633;BME280;28261;53.304;-6.284;2022-12-18T05:15:02;100465.03;;;4.46;100.00
42633;BME280;28261;53.304;-6.284;2022-12-18T05:17:06;100461.44;;;4.49;100.00
42633;BME280;28261;53.304;-6.284;2022-12-18T05:19:09;100442.75;;;4.55;100.00
42633;BME280;28261;53.304;-6.284;2022-12-18T05:21:13;100442.75;;;4.55;100.00
42633;BME280;28261;53.304;-6.284;2022-12-18T05:23:19;100432.25;;;4.55;100.00
42633;BME280;28261;53.304;-6.284;2022-12-18T05:25:23;100436.66;;;4.54;100.00
42633;BME280;28261;53.304;-6.284;2022-12-18T05:27:26;100429.69;;;4.53;100.00
42633;BME280;28261;53.304;-6.284;2022-12-18T05:29:29;100434.25;;;4.50;100.00
42633;BME280;28261;53.304;-6.284;2022-12-18T05:31:33;100428.06;;;4.51;100.00
42633;BME280;28261;53.304;-6.284;2022-12-18T05:33:40;100435.19;;;4.49;100.00
42633;BME280;28261;53.304;-6.284;2022-12-18T05:35:50;100419.50;;;4.47;100.00
42633;BME280;28261;53.304;-6.284;2022-12-18T05:37:53;100416.94;;;4.46;100.00
42633;BME280;28261;53.304;-6.284;2022-12-18T05:39:58;100425.81;;;4.43;100.00
42633;BME280;28261;53.304;-6.284;2022-12-18T05:42:02;100429.44;;;4.40;100.00
42633;BME280;28261;53.304;-6.284;2022-12-18T05:44:05;100425.16;;;4.38;100.00
42633;BME280;28261;53.304;-6.284;2022-12-18T05:46:11;100439.13;;;4.38;100.00
42633;BME280;28261;53.304;-6.284;2022-12-18T05:48:15;100433.19;;;4.35;100.00
42633;BME280;28261;53.304;-6.284;2022-12-18T05:50:19;100430.56;;;4.35;100.00
42633;BME280;28261;53.304;-6.284;2022-12-18T05:52:22;100427.22;;;4.31;100.00
42633;BME280;28261;53.304;-6.284;2022-12-18T05:54:26;100430.75;;;4.30;100.00
42633;BME280;28261;53.304;-6.284;2022-12-18T05:56:31;100429.09;;;4.29;100.00
42633;BME280;28261;53.304;-6.284;2022-12-18T05:58:35;100426.47;;;4.29;100.00
42633;BME280;28261;53.304;-6.284;2022-12-18T06:00:42;100424.75;;;4.28;100.00
42633;BME280;28261;53.304;-6.284;2022-12-18T06:02:46;100420.47;;;4.26;100.00
42633;BME280;28261;53.304;-6.284;2022-12-18T06:04:50;100418.00;;;4.22;100.00
42633;BME280;28261;53.304;-6.284;2022-12-18T06:06:53;100408.28;;;4.24;100.00
42633;BME280;28261;53.304;-6.284;2022-12-18T06:08:57;100410.13;;;4.22;100.00
42633;BME280;28261;53.304;-6.284;2022-12-18T06:11:01;100410.13;;;4.22;100.00
42633;BME280;28261;53.304;-6.284;2022-12-18T06:13:07;100398.91;;;4.19;100.00
42633;BME280;28261;53.304;-6.284;2022-12-18T06:15:11;100399.00;;;4.17;100.00
42633;BME280;28261;53.304;-6.284;2022-12-18T06:17:14;100390.41;;;4.14;100.00
42633;BME280;28261;53.304;-6.284;2022-12-18T06:19:18;100386.06;;;4.13;100.00
42633;BME280;28261;53.304;-6.284;2022-12-18T06:21:22;100380.91;;;4.11;100.00
42633;BME280;28261;53.304;-6.284;2022-12-18T06:23:26;100388.69;;;4.13;100.00
42633;BME280;28261;53.304;-6.284;2022-12-18T06:25:29;100375.56;;;4.13;100.00
42633;BME280;28261;53.304;-6.284;2022-12-18T06:27:33;100374.66;;;4.14;100.00
42633;BME280;28261;53.304;-6.284;2022-12-18T06:29:38;100366.88;;;4.12;100.00
42633;BME280;28261;53.304;-6.284;2022-12-18T06:31:41;100359.06;;;4.11;100.00
42633;BME280;28261;53.304;-6.284;2022-12-18T06:33:45;100373.97;;;4.10;100.00
42633;BME280;28261;53.304;-6.284;2022-12-18T06:35:50;100360.91;;;4.09;100.00
42633;BME280;28261;53.304;-6.284;2022-12-18T06:38:01;100347.03;;;4.06;100.00
42633;BME280;28261;53.304;-6.284;2022-12-18T06:40:06;100350.56;;;4.05;100.00
42633;BME280;28261;53.304;-6.284;2022-12-18T06:42:10;100334.81;;;4.05;100.00
42633;BME280;28261;53.304;-6.284;2022-12-18T06:44:14;100324.31;;;4.05;100.00
42633;BME280;28261;53.304;-6.284;2022-12-18T06:46:19;100309.47;;;4.06;100.00
42633;BME280;28261;53.304;-6.284;2022-12-18T06:48:22;100302.44;;;4.06;100.00
42633;BME280;28261;53.304;-6.284;2022-12-18T06:50:27;100294.72;;;4.03;100.00
42633;BME280;28261;53.304;-6.284;2022-12-18T06:52:31;100297.44;;;4.00;100.00
42633;BME280;28261;53.304;-6.284;2022-12-18T06:54:35;100302.91;;;3.96;100.00
42633;BME280;28261;53.304;-6.284;2022-12-18T06:56:39;100284.72;;;3.93;100.00
42633;BME280;28261;53.304;-6.284;2022-12-18T06:58:42;100292.69;;;3.89;100.00
42633;BME280;28261;53.304;-6.284;2022-12-18T07:00:46;100293.00;;;3.83;100.00
42633;BME280;28261;53.304;-6.284;2022-12-18T07:02:52;100268.59;;;3.81;100.00
42633;BME280;28261;53.304;-6.284;2022-12-18T07:04:56;100280.88;;;3.81;100.00
42633;BME280;28261;53.304;-6.284;2022-12-18T07:07:00;100261.81;;;3.77;100.00
42633;BME280;28261;53.304;-6.284;2022-12-18T07:09:03;100256.63;;;3.76;100.00
42633;BME280;28261;53.304;-6.284;2022-12-18T07:11:06;100259.34;;;3.74;100.00
42633;BME280;28261;53.304;-6.284;2022-12-18T07:13:10;100254.09;;;3.74;100.00
42633;BME280;28261;53.304;-6.284;2022-12-18T07:15:14;100253.25;;;3.73;100.00
42633;BME280;28261;53.304;-6.284;2022-12-18T07:17:18;100232.28;;;3.73;100.00
42633;BME280;28261;53.304;-6.284;2022-12-18T07:19:22;100233.19;;;3.72;100.00
42633;BME280;28261;53.304;-6.284;2022-12-18T07:21:26;100220.09;;;3.72;100.00
42633;BME280;28261;53.304;-6.284;2022-12-18T07:23:29;100214.84;;;3.72;100.00
42633;BME280;28261;53.304;-6.284;2022-12-18T07:25:34;100205.28;;;3.71;100.00
42633;BME280;28261;53.304;-6.284;2022-12-18T07:27:37;100197.41;;;3.71;100.00
42633;BME280;28261;53.304;-6.284;2022-12-18T07:29:41;100181.69;;;3.71;100.00
42633;BME280;28261;53.304;-6.284;2022-12-18T07:31:45;100189.63;;;3.70;100.00
42633;BME280;28261;53.304;-6.284;2022-12-18T07:33:49;100182.66;;;3.69;100.00
42633;BME280;28261;53.304;-6.284;2022-12-18T07:35:54;100178.38;;;3.68;100.00
42633;BME280;28261;53.304;-6.284;2022-12-18T07:37:57;100173.22;;;3.66;100.00
42633;BME280;28261;53.304;-6.284;2022-12-18T07:40:01;100170.59;;;3.66;100.00
42633;BME280;28261;53.304;-6.284;2022-12-18T07:42:05;100173.13;;;3.68;100.00
42633;BME280;28261;53.304;-6.284;2022-12-18T07:44:34;100159.94;;;3.69;100.00
42633;BME280;28261;53.304;-6.284;2022-12-18T07:46:38;100157.16;;;3.72;100.00
42633;BME280;28261;53.304;-6.284;2022-12-18T07:48:43;100143.91;;;3.76;100.00
42633;BME280;28261;53.304;-6.284;2022-12-18T07:50:50;100129.03;;;3.76;100.00
42633;BME280;28261;53.304;-6.284;2022-12-18T07:52:55;100113.31;;;3.76;100.00
42633;BME280;28261;53.304;-6.284;2022-12-18T07:54:59;100100.22;;;3.76;100.00
42633;BME280;28261;53.304;-6.284;2022-12-18T07:57:03;100094.97;;;3.76;100.00
42633;BME280;28261;53.304;-6.284;2022-12-18T07:59:26;100090.63;;;3.75;100.00
42633;BME280;28261;53.304;-6.284;2022-12-18T08:01:30;100088.84;;;3.76;100.00
42633;BME280;28261;53.304;-6.284;2022-12-18T08:03:34;100085.38;;;3.75;100.00
42633;BME280;28261;53.304;-6.284;2022-12-18T08:05:38;100073.28;;;3.72;100.00
42633;BME280;28261;53.304;-6.284;2022-12-18T08:07:41;100075.91;;;3.72;100.00
42633;BME280;28261;53.304;-6.284;2022-12-18T08:09:47;100069.75;;;3.73;100.00
42633;BME280;28261;53.304;-6.284;2022-12-18T08:11:50;100068.03;;;3.72;100.00
42633;BME280;28261;53.304;-6.284;2022-12-18T08:13:55;100063.72;;;3.71;100.00
42633;BME280;28261;53.304;-6.284;2022-12-18T08:16:00;100041.00;;;3.72;100.00
42633;BME280;28261;53.304;-6.284;2022-12-18T08:18:04;100021.69;;;3.73;100.00
42633;BME280;28261;53.304;-6.284;2022-12-18T08:20:14;100024.31;;;3.73;100.00
42633;BME280;28261;53.304;-6.284;2022-12-18T08:22:20;100001.66;;;3.72;100.00
42633;BME280;28261;53.304;-6.284;2022-12-18T08:24:23;100005.28;;;3.69;100.00
42633;BME280;28261;53.304;-6.284;2022-12-18T08:26:30;99986.94;;;3.69;100.00
42633;BME280;28261;53.304;-6.284;2022-12-18T08:28:34;99978.38;;;3.66;100.00
42633;BME280;28261;53.304;-6.284;2022-12-18T08:30:38;99971.50;;;3.63;100.00
42633;BME280;28261;53.304;-6.284;2022-12-18T08:32:42;99979.28;;;3.65;100.00
42633;BME280;28261;53.304;-6.284;2022-12-18T08:34:46;99960.88;;;3.66;100.00
42633;BME280;28261;53.304;-6.284;2022-12-18T08:36:50;99939.06;;;3.66;100.00
42633;BME280;28261;53.304;-6.284;2022-12-18T08:38:54;99943.47;;;3.65;100.00
42633;BME280;28261;53.304;-6.284;2022-12-18T08:40:58;99925.19;;;3.64;100.00
42633;BME280;28261;53.304;-6.284;2022-12-18T08:43:05;99915.53;;;3.64;100.00
42633;BME280;28261;53.304;-6.284;2022-12-18T08:45:26;99895.34;;;3.66;100.00
42633;BME280;28261;53.304;-6.284;2022-12-18T08:47:31;99890.03;;;3.68;100.00
42633;BME280;28261;53.304;-6.284;2022-12-18T08:49:35;99888.25;;;3.68;100.00
42633;BME280;28261;53.304;-6.284;2022-12-18T08:51:39;99879.28;;;3.72;100.00
42633;BME280;28261;53.304;-6.284;2022-12-18T08:53:44;99885.25;;;3.76;100.00
42633;BME280;28261;53.304;-6.284;2022-12-18T08:55:48;99879.75;;;3.81;100.00
42633;BME280;28261;53.304;-6.284;2022-12-18T08:57:52;99868.25;;;3.83;100.00
42633;BME280;28261;53.304;-6.284;2022-12-18T08:59:57;99871.72;;;3.84;100.00
42633;BME280;28261;53.304;-6.284;2022-12-18T09:02:01;99874.19;;;3.87;100.00
42633;BME280;28261;53.304;-6.284;2022-12-18T09:04:07;99865.38;;;3.88;100.00
42633;BME280;28261;53.304;-6.284;2022-12-18T09:06:14;99874.09;;;3.88;100.00
42633;BME280;28261;53.304;-6.284;2022-12-18T09:08:19;99854.75;;;3.91;100.00
42633;BME280;28261;53.304;-6.284;2022-12-18T09:10:23;99849.41;;;3.93;100.00
42633;BME280;28261;53.304;-6.284;2022-12-18T09:12:27;99833.59;;;3.94;100.00
42633;BME280;28261;53.304;-6.284;2022-12-18T09:14:32;99836.97;;;3.96;100.00
42633;BME280;28261;53.304;-6.284;2022-12-18T09:16:37;99839.59;;;3.96;100.00
42633;BME280;28261;53.304;-6.284;2022-12-18T09:18:41;99850.03;;;3.98;100.00
42633;BME280;28261;53.304;-6.284;2022-12-18T09:20:46;99830.81;;;3.97;100.00
42633;BME280;28261;53.304;-6.284;2022-12-18T09:22:50;99835.13;;;3.98;100.00
42633;BME280;28261;53.304;-6.284;2022-12-18T09:24:57;99835.81;;;4.02;100.00
42633;BME280;28261;53.304;-6.284;2022-12-18T09:27:01;99813.78;;;4.04;100.00
42633;BME280;28261;53.304;-6.284;2022-12-18T09:29:05;99830.38;;;4.05;100.00
42633;BME280;28261;53.304;-6.284;2022-12-18T09:31:11;99768.97;;;4.09;100.00
42633;BME280;28261;53.304;-6.284;2022-12-18T09:33:17;99780.91;;;4.15;100.00
42633;BME280;28261;53.304;-6.284;2022-12-18T09:35:25;99789.44;;;4.18;100.00
42633;BME280;28261;53.304;-6.284;2022-12-18T09:37:29;99756.78;;;4.24;100.00
42633;BME280;28261;53.304;-6.284;2022-12-18T09:39:33;99747.81;;;4.28;100.00
42633;BME280;28261;53.304;-6.284;2022-12-18T09:41:43;99766.91;;;4.30;100.00
42633;BME280;28261;53.304;-6.284;2022-12-18T09:43:50;99751.94;;;4.32;100.00
42633;BME280;28261;53.304;-6.284;2022-12-18T09:45:59;99750.84;;;4.36;100.00
42633;BME280;28261;53.304;-6.284;2022-12-18T09:48:05;99750.75;;;4.38;100.00
42633;BME280;28261;53.304;-6.284;2022-12-18T09:50:28;99745.41;;;4.39;100.00
42633;BME280;28261;53.304;-6.284;2022-12-18T09:52:35;99745.41;;;4.39;100.00
42633;BME280;28261;53.304;-6.284;2022-12-18T09:54:42;99734.72;;;4.43;100.00
42633;BME280;28261;53.304;-6.284;2022-12-18T09:56:47;99738.22;;;4.43;100.00
42633;BME280;28261;53.304;-6.284;2022-12-18T09:58:55;99730.25;;;4.45;100.00
42633;BME280;28261;53.304;-6.284;2022-12-18T10:01:00;99716.09;;;4.47;100.00
42633;BME280;28261;53.304;-6.284;2022-12-18T10:03:10;99723.13;;;4.47;100.00
42633;BME280;28261;53.304;-6.284;2022-12-18T10:05:27;99728.28;;;4.48;100.00
42633;BME280;28261;53.304;-6.284;2022-12-18T10:07:43;99716.09;;;4.47;100.00
42633;BME280;28261;53.304;-6.284;2022-12-18T10:09:57;99716.19;;;4.46;100.00
42633;BME280;28261;53.304;-6.284;2022-12-18T10:12:08;99719.56;;;4.48;100.00
42633;BME280;28261;53.304;-6.284;2022-12-18T10:14:20;99736.91;;;4.50;100.00
42633;BME280;28261;53.304;-6.284;2022-12-18T10:16:33;99733.28;;;4.53;100.00
42633;BME280;28261;53.304;-6.284;2022-12-18T10:18:57;99743.00;;;4.51;100.00
42633;BME280;28261;53.304;-6.284;2022-12-18T10:21:10;99740.97;;;4.56;100.00
42633;BME280;28261;53.304;-6.284;2022-12-18T10:23:19;99730.47;;;4.56;100.00
42633;BME280;28261;53.304;-6.284;2022-12-18T10:25:31;99730.28;;;4.59;100.00
42633;BME280;28261;53.304;-6.284;2022-12-18T10:27:38;99745.09;;;4.60;100.00
42633;BME280;28261;53.304;-6.284;2022-12-18T10:29:43;99752.97;;;4.60;100.00
42633;BME280;28261;53.304;-6.284;2022-12-18T10:31:48;99749.41;;;4.61;100.00
42633;BME280;28261;53.304;-6.284;2022-12-18T10:33:53;99751.03;;;4.64;100.00
42633;BME280;28261;53.304;-6.284;2022-12-18T10:35:58;99743.78;;;4.67;100.00
42633;BME280;28261;53.304;-6.284;2022-12-18T10:38:06;99751.59;;;4.69;100.00
42633;BME280;28261;53.304;-6.284;2022-12-18T10:40:14;99742.63;;;4.73;100.00
42633;BME280;28261;53.304;-6.284;2022-12-18T10:42:23;99760.91;;;4.74;100.00
42633;BME280;28261;53.304;-6.284;2022-12-18T10:44:27;99748.53;;;4.77;100.00
42633;BME280;28261;53.304;-6.284;2022-12-18T10:46:31;99739.72;;;4.78;100.00
42633;BME280;28261;53.304;-6.284;2022-12-18T10:48:40;99754.53;;;4.79;100.00
42633;BME280;28261;53.304;-6.284;2022-12-18T10:50:51;99749.09;;;4.82;100.00
42633;BME280;28261;53.304;-6.284;2022-12-18T10:53:19;99745.53;;;4.83;100.00
42633;BME280;28261;53.304;-6.284;2022-12-18T10:55:24;99747.41;;;4.81;100.00